METAR Data
IDs: Format: Raw Decoded Include TAF

Data at: 1710 UTC 03 Jun 2020

PHNL 031653Z 36003KT 10SM FEW025 SCT041 25/20 A3001 RMK AO2 SLP162 T02500200 $
PHNL 031553Z 05003KT 10SM FEW022 FEW038 24/20 A3000 RMK AO2 SLP157 T02440200 $

PHNL 031519Z 0315/0418 06004KT P6SM FEW022 SCT050
  FM032100 09010G16KT P6SM FEW025 SCT045
  FM040600 06008KT P6SM FEW025 SCT040


PHOG 031654Z 28003KT 10SM FEW035 25/20 A3001 RMK AO2 SLP165 T02500200 $
PHOG 031554Z 12006KT 10SM FEW035 22/18 A2999 RMK AO2 SLP160 T02170183 $

PHOG 031127Z 0312/0412 09004KT P6SM VCSH FEW035
  FM032100 05018KT P6SM FEW030 SCT045
  FM040500 04014KT P6SM VCSH FEW030 SCT050 AMD LTD TO VIS AND WIND TIL 031600


PHKO 031653Z 15007KT 10SM BKN060 25/22 A2997 RMK AO2 SLP148 T02500222
PHKO 031553Z 13009KT 10SM FEW021 SCT035 BKN055 24/22 A2995 RMK AO2 SLP142 T02390217
PHKO 031515Z AUTO 15008KT 10SM FEW025 OVC035 23/22 A2994 RMK AO2 T02330222 TSNO

PHKO 031127Z 0312/0412 31008KT P6SM VCSH SCT025 OVC045
  TEMPO 0312/0315 BKN025
  FM031900 21010KT P6SM SCT030 BKN060
  FM040800 12003KT P6SM VCSH SCT030 BKN060


PHTO 031653Z 19003KT 10SM CLR 23/18 A3003 RMK AO2 SLP167 T02280178
PHTO 031553Z 23003KT 10SM CLR 21/17 A3001 RMK AO2 SLP161 T02110172

PHTO 031127Z 0312/0412 23005KT P6SM VCSH SCT025
  FM032000 08010KT P6SM SCT025 SCT045
  FM040600 24005KT P6SM VCSH SCT025 OVC035


PHLI 031653Z 03008KT 10SM BKN013 BKN019 OVC050 25/23 A3003 RMK AO2 SLP167 T02500233
PHLI 031553Z AUTO 05007KT 10SM SCT015 BKN021 OVC045 24/23 A3002 RMK AO2 SLP161 T02440228 TSNO

PHLI 031127Z 0312/0412 07010KT P6SM VCSH FEW015 SCT025